Time;durP1;ratioP1;P1;durP2;ratioP2;P2;SDS_P1;SDS_P2;PMS_P1;PMS_P2;Temp;Humidity;BMP_temperature;BMP_pressure;BME280_temperature;BME280_humidity;BME280_pressure;Samples;Min_cycle;Max_cycle;Signal;HPM_P1;HPM_P2
2024/01/09 00:01:05;;;;;;;14.48;8.00;;;;;;;;;;5013484;28;20080;-67
2024/01/09 00:03:31;;;;;;;12.90;7.13;;;;;;;;;;5013016;28;20278;-66
2024/01/09 00:05:58;;;;;;;12.65;7.15;;;;;;;;;;5013218;28;20124;-66
2024/01/09 00:08:24;;;;;;;12.95;6.68;;;;;;;;;;5013387;28;20484;-65
2024/01/09 00:10:50;;;;;;;11.77;6.35;;;;;;;;;;5011465;28;20056;-65
2024/01/09 00:13:16;;;;;;;10.10;5.40;;;;;;;;;;5044836;28;20141;-66
2024/01/09 00:15:42;;;;;;;11.48;5.40;;;;;;;;;;5028020;28;20136;-66
2024/01/09 00:18:08;;;;;;;10.57;5.30;;;;;;;;;;5027710;28;20133;-66
2024/01/09 00:20:34;;;;;;;12.27;5.30;;;;;;;;;;5011946;28;20204;-65
2024/01/09 00:23:00;;;;;;;10.65;4.80;;;;;;;;;;5012440;28;20049;-65
2024/01/09 00:25:26;;;;;;;11.32;5.55;;;9.10;90.70;;;;;;5044281;28;20069;-68
2024/01/09 00:27:52;;;;;;;13.27;5.30;;;9.10;90.70;;;;;;5044208;28;20049;-64
2024/01/09 00:30:19;;;;;;;10.57;5.45;;;;;;;;;;5012672;28;20481;-66
2024/01/09 00:32:47;;;;;;;8.88;4.60;;;;;;;;;;4994958;28;20046;-67
2024/01/09 00:35:14;;;;;;;9.23;4.40;;;;;;;;;;5012497;28;20423;-67
2024/01/09 00:37:40;;;;;;;8.95;4.20;;;;;;;;;;5028464;28;20459;-67
2024/01/09 00:40:08;;;;;;;7.80;4.15;;;;;;;;;;5011049;28;20066;-65
2024/01/09 00:42:33;;;;;;;10.68;5.05;;;9.20;90.70;;;;;;5044731;28;20439;-66
2024/01/09 00:45:02;;;;;;;7.78;3.83;;;;;;;;;;5012212;28;20037;-66
2024/01/09 00:47:29;;;;;;;10.50;4.07;;;;;;;;;;4995312;28;20072;-66
2024/01/09 00:49:55;;;;;;;10.40;4.88;;;;;;;;;;5012296;28;20112;-66
2024/01/09 00:52:22;;;;;;;10.00;5.15;;;;;;;;;;5011633;28;20478;-66
2024/01/09 00:54:48;;;;;;;8.88;4.38;;;;;;;;;;5012820;28;20042;-66
2024/01/09 00:57:14;;;;;;;9.07;4.18;;;;;;;;;;5031178;28;20099;-66
2024/01/09 00:59:40;;;;;;;11.05;5.05;;;9.00;90.70;;;;;;5014556;28;20045;-66
2024/01/09 01:02:06;;;;;;;8.35;4.22;;;;;;;;;;5014807;28;20049;-66
2024/01/09 01:04:32;;;;;;;8.25;3.70;;;;;;;;;;5020886;28;20056;-67
2024/01/09 01:06:58;;;;;;;7.07;3.80;;;;;;;;;;5058448;28;20052;-66
2024/01/09 01:09:24;;;;;;;8.05;3.60;;;;;;;;;;5014532;28;20071;-66
2024/01/09 01:11:50;;;;;;;7.28;4.40;;;;;;;;;;5031203;28;20067;-66
2024/01/09 01:14:16;;;;;;;7.22;3.40;;;;;;;;;;5023638;28;20045;-66
2024/01/09 01:16:43;;;;;;;8.30;3.70;;;;;;;;;;5012104;28;20050;-66
2024/01/09 01:19:09;;;;;;;9.15;4.07;;;;;;;;;;5010538;28;20045;-67
2024/01/09 01:21:35;;;;;;;7.88;3.42;;;;;;;;;;5010937;28;20050;-66
2024/01/09 01:24:01;;;;;;;7.90;3.85;;;;;;;;;;5012599;28;20038;-66
2024/01/09 01:26:29;;;;;;;7.55;3.20;;;;;;;;;;5010654;28;20041;-66
2024/01/09 01:28:55;;;;;;;7.85;3.65;;;;;;;;;;5012494;28;20049;-66
2024/01/09 01:31:20;;;;;;;7.82;3.47;;;8.90;90.80;;;;;;5010571;28;20494;-66
2024/01/09 01:33:47;;;;;;;9.07;3.35;;;;;;;;;;5043970;28;20061;-65
2024/01/09 01:36:14;;;;;;;7.97;3.83;;;;;;;;;;5011256;28;20042;-66
2024/01/09 01:38:40;;;;;;;6.85;3.05;;;;;;;;;;5029444;28;20110;-66
2024/01/09 01:41:06;;;;;;;8.68;3.50;;;;;;;;;;5015153;28;20049;-66
2024/01/09 01:43:32;;;;;;;7.20;3.25;;;8.70;90.90;;;;;;5015725;28;20108;-65
2024/01/09 01:45:58;;;;;;;6.55;3.38;;;;;;;;;;5013701;28;20108;-66
2024/01/09 01:48:24;;;;;;;6.57;3.40;;;8.80;90.90;;;;;;5015895;28;20085;-66
2024/01/09 01:50:50;;;;;;;6.82;3.08;;;;;;;;;;5047312;28;20504;-66
2024/01/09 01:53:16;;;;;;;6.30;2.85;;;;;;;;;;5047286;28;20121;-66
2024/01/09 01:55:42;;;;;;;6.63;2.95;;;;;;;;;;5030750;28;20058;-66
2024/01/09 01:58:09;;;;;;;6.47;2.70;;;;;;;;;;5047035;28;20064;-66
2024/01/09 02:00:35;;;;;;;9.70;3.17;;;;;;;;;;5047083;28;20049;-66
2024/01/09 02:03:01;;;;;;;6.72;2.92;;;;;;;;;;5047075;28;20046;-65
2024/01/09 02:05:27;;;;;;;7.25;3.25;;;8.60;91.00;;;;;;5015171;28;20052;-66
2024/01/09 02:07:54;;;;;;;6.03;3.30;;;;;;;;;;4982872;28;20054;-67
2024/01/09 02:10:21;;;;;;;6.65;3.22;;;;;;;;;;4995882;28;20452;-67
2024/01/09 02:12:47;;;;;;;5.88;2.70;;;;;;;;;;5008680;28;20396;-66
2024/01/09 02:15:13;;;;;;;7.93;2.88;;;;;;;;;;5046571;28;20042;-65
2024/01/09 02:17:39;;;;;;;6.25;3.00;;;;;;;;;;5046980;28;20056;-66
2024/01/09 02:20:06;;;;;;;5.40;2.95;;;8.80;89.00;;;;;;5046889;28;20531;-66
2024/01/09 02:22:31;;;;;;;4.88;2.58;;;8.60;90.10;;;;;;5047126;28;20041;-67
2024/01/09 02:24:57;;;;;;;5.38;2.35;;;;;;;;;;5046537;28;20450;-68
2024/01/09 02:27:41;;;;;;;8.60;3.10;;;8.30;88.70;;;;;;5014813;28;20069;-65
2024/01/09 02:30:08;;;;;;;6.60;3.15;;;8.60;91.10;;;;;;5046631;28;20085;-66
2024/01/09 02:32:34;;;;;;;5.63;2.65;;;;;;;;;;4996381;28;20484;-66
2024/01/09 02:35:00;;;;;;;8.48;2.90;;;;;;;;;;5014411;28;20046;-68
2024/01/09 02:37:26;;;;;;;5.80;2.50;;;;;;;;;;5014051;28;20411;-65
2024/01/09 02:39:52;;;;;;;5.47;2.67;;;;;;;;;;5012846;28;20479;-67
2024/01/09 02:42:18;;;;;;;5.45;2.72;;;8.50;91.10;;;;;;5014473;28;20058;-64
2024/01/09 02:44:44;;;;;;;5.70;2.47;;;;;;;;;;5046401;28;20188;-66
2024/01/09 02:47:11;;;;;;;5.20;2.55;;;;;;;;;;5014288;28;20052;-67
2024/01/09 02:49:37;;;;;;;7.40;2.80;;;;;;;;;;5012231;28;20076;-67
2024/01/09 02:52:03;;;;;;;6.65;2.85;;;8.50;91.20;;;;;;4997197;28;20103;-66
2024/01/09 02:54:29;;;;;;;4.93;2.47;;;;;;;;;;5012648;28;20431;-66
2024/01/09 02:56:55;;;;;;;6.53;3.05;;;;;;;;;;5014448;28;20073;-66
2024/01/09 02:59:23;;;;;;;6.80;3.03;;;;;;;;;;5045721;28;20052;-66
2024/01/09 03:01:50;;;;;;;7.63;3.05;;;;;;;;;;5046336;28;20050;-66
2024/01/09 03:04:15;;;;;;;5.85;2.70;;;8.50;89.50;;;;;;4996339;28;20049;-67
2024/01/09 03:06:41;;;;;;;6.60;2.75;;;;;;;;;;5012974;28;20499;-66
2024/01/09 03:09:08;;;;;;;6.22;3.08;;;;;;;;;;5012850;28;20104;-66
2024/01/09 03:11:34;;;;;;;5.60;2.30;;;;;;;;;;5014414;28;20046;-66
2024/01/09 03:14:00;;;;;;;5.60;3.00;;;;;;;;;;5014001;28;20045;-66
2024/01/09 03:16:26;;;;;;;5.85;2.78;;;;;;;;;;5013368;28;20088;-67
2024/01/09 03:18:52;;;;;;;5.32;2.38;;;;;;;;;;5012586;28;20393;-67
2024/01/09 03:21:18;;;;;;;6.45;2.90;;;;;;;;;;4996324;28;20054;-66
2024/01/09 03:23:44;;;;;;;6.53;3.20;;;;;;;;;;4996671;28;20054;-66
2024/01/09 03:26:11;;;;;;;5.60;2.92;;;;;;;;;;5013818;28;20057;-66
2024/01/09 03:28:37;;;;;;;7.57;3.17;;;;;;;;;;4995060;28;20124;-67
2024/01/09 03:31:04;;;;;;;5.68;2.90;;;;;;;;;;5014021;28;20072;-67
2024/01/09 03:33:29;;;;;;;8.15;2.30;;;8.60;91.30;;;;;;5045308;28;20057;-68
2024/01/09 03:35:56;;;;;;;5.65;2.70;;;;;;;;;;5013421;28;20042;-67
2024/01/09 03:38:22;;;;;;;6.10;2.75;;;8.00;91.20;;;;;;5011851;28;20125;-67
2024/01/09 03:40:48;;;;;;;5.90;2.90;;;;;;;;;;5013285;28;20611;-67
2024/01/09 03:43:14;;;;;;;4.53;2.50;;;;;;;;;;4996069;28;20089;-67
2024/01/09 03:45:40;;;;;;;8.63;4.70;;;;;;;;;;5045456;28;20079;-67
2024/01/09 03:48:06;;;;;;;8.15;4.22;;;8.30;91.40;;;;;;5011737;28;20133;-67
2024/01/09 03:50:33;;;;;;;6.93;3.22;;;;;;;;;;5044680;28;20050;-67
2024/01/09 03:52:59;;;;;;;6.10;3.08;;;;;;;;;;5013607;28;20104;-67
2024/01/09 03:55:26;;;;;;;7.28;3.33;;;;;;;;;;5044645;28;20089;-67
2024/01/09 03:57:52;;;;;;;7.22;2.50;;;;;;;;;;5045065;28;20065;-67
2024/01/09 04:00:18;;;;;;;5.80;2.65;;;;;;;;;;5044169;28;20053;-65
2024/01/09 04:02:44;;;;;;;5.95;2.67;;;;;;;;;;5044807;28;20060;-67
2024/01/09 04:05:10;;;;;;;6.35;3.13;;;;;;;;;;5011837;28;20061;-66
2024/01/09 04:07:36;;;;;;;5.43;2.65;;;;;;;;;;5044944;28;20084;-66
2024/01/09 04:10:03;;;;;;;7.05;2.70;;;8.30;91.40;;;;;;5011819;28;20046;-66
2024/01/09 04:12:29;;;;;;;8.20;4.30;;;;;;;;;;5011516;28;20408;-66
2024/01/09 04:14:55;;;;;;;8.82;2.90;;;;;;;;;;5012603;28;20130;-66
2024/01/09 04:17:21;;;;;;;6.82;3.83;;;;;;;;;;5011730;28;20049;-66
2024/01/09 04:19:47;;;;;;;6.80;3.08;;;;;;;;;;5044784;28;20050;-66
2024/01/09 04:22:13;;;;;;;5.78;2.80;;;;;;;;;;5044358;28;20488;-68
2024/01/09 04:24:39;;;;;;;10.35;3.75;;;;;;;;;;5044484;28;20060;-67
2024/01/09 04:27:05;;;;;;;5.28;2.60;;;8.30;91.30;;;;;;5012518;28;20049;-67
2024/01/09 04:29:31;;;;;;;5.70;2.90;;;;;;;;;;5044712;28;20538;-67
2024/01/09 04:31:57;;;;;;;5.65;2.70;;;;;;;;;;5044182;28;20121;-68
2024/01/09 04:34:24;;;;;;;6.35;2.88;;;;;;;;;;5012852;28;20132;-67
2024/01/09 04:36:50;;;;;;;5.78;2.67;;;8.10;91.30;;;;;;5028115;28;20046;-66
2024/01/09 04:39:16;;;;;;;8.60;4.50;;;;;;;;;;5011330;28;20054;-66
2024/01/09 04:41:42;;;;;;;9.75;3.42;;;;;;;;;;5011929;28;20088;-66
2024/01/09 04:44:08;;;;;;;7.63;3.35;;;;;;;;;;5044426;28;20522;-66
2024/01/09 04:46:34;;;;;;;6.50;3.00;;;;;;;;;;5012410;28;20089;-66
2024/01/09 04:49:03;;;;;;;5.88;2.97;;;;;;;;;;5011730;28;20045;-66
2024/01/09 04:51:30;;;;;;;5.85;3.10;;;;;;;;;;5012030;28;20496;-67
2024/01/09 04:53:56;;;;;;;6.53;2.88;;;;;;;;;;5044477;28;20104;-68
2024/01/09 04:56:22;;;;;;;6.13;3.10;;;;;;;;;;5027725;28;20073;-67
2024/01/09 04:58:53;;;;;;;6.45;2.60;;;;;;;;;;5028057;28;20459;-67
2024/01/09 05:01:20;;;;;;;6.57;2.88;;;;;;;;;;5012094;28;20046;-67
2024/01/09 05:03:48;;;;;;;6.75;3.72;;;;;;;;;;5011203;28;20116;-67
2024/01/09 05:06:15;;;;;;;8.27;3.90;;;8.00;90.00;;;;;;5011916;28;20450;-67
2024/01/09 05:08:41;;;;;;;6.47;3.22;;;;;;;;;;5011222;28;20601;-67
2024/01/09 05:11:07;;;;;;;6.60;3.38;;;8.40;89.60;;;;;;5012292;28;20054;-65
2024/01/09 05:13:33;;;;;;;10.45;3.22;;;8.20;91.30;;;;;;5013856;28;20056;-68
2024/01/09 05:15:59;;;;;;;8.85;3.13;;;8.10;91.20;;;;;;5015287;28;20050;-67
2024/01/09 05:18:25;;;;;;;6.57;3.08;;;8.10;89.00;;;;;;5014427;28;20053;-67
2024/01/09 05:20:51;;;;;;;6.38;3.00;;;;;;;;;;5031484;28;20453;-67
2024/01/09 05:23:17;;;;;;;7.43;2.80;;;;;;;;;;5014869;28;20049;-67
2024/01/09 05:25:43;;;;;;;6.28;2.88;;;;;;;;;;5048036;28;20139;-67
2024/01/09 05:28:09;;;;;;;8.10;3.60;;;;;;;;;;5047816;28;20046;-67
2024/01/09 05:30:36;;;;;;;8.02;4.10;;;;;;;;;;5014734;28;20133;-66
2024/01/09 05:33:02;;;;;;;8.07;3.70;;;;;;;;;;5015149;28;20125;-67
2024/01/09 05:35:28;;;;;;;6.38;3.30;;;;;;;;;;5047654;28;20053;-66
2024/01/09 05:37:55;;;;;;;7.03;3.47;;;;;;;;;;5014865;28;20050;-66
2024/01/09 05:40:21;;;;;;;6.07;3.20;;;;;;;;;;5047462;28;20076;-67
2024/01/09 05:42:47;;;;;;;6.65;3.42;;;;;;;;;;5047295;28;20092;-67
2024/01/09 05:45:14;;;;;;;7.50;3.30;;;8.20;90.70;;;;;;5047416;28;20053;-67
2024/01/09 05:47:40;;;;;;;5.97;3.00;;;;;;;;;;5015348;28;20046;-66
2024/01/09 05:50:07;;;;;;;6.28;3.10;;;8.10;91.40;;;;;;5014700;28;20111;-67
2024/01/09 05:52:39;;;;;;;7.28;3.67;;;7.90;89.00;;;;;;5013860;28;20447;-67
2024/01/09 05:55:06;;;;;;;9.75;4.38;;;;;;;;;;5030371;28;20121;-68
2024/01/09 05:57:32;;;;;;;7.28;3.97;;;;;;;;;;4998140;28;20053;-67
2024/01/09 05:59:58;;;;;;;6.75;3.60;;;;;;;;;;5014180;28;20504;-68
2024/01/09 06:02:24;;;;;;;7.70;3.45;;;;;;;;;;5013595;28;20049;-67
2024/01/09 06:04:50;;;;;;;9.10;3.58;;;7.90;91.40;;;;;;5014217;28;20068;-67
2024/01/09 06:07:17;;;;;;;6.65;3.00;;;;;;;;;;5030481;28;20046;-68
2024/01/09 06:09:43;;;;;;;5.82;3.10;;;;;;;;;;5013606;28;20496;-67
2024/01/09 06:12:09;;;;;;;7.07;3.38;;;;;;;;;;5013805;28;20046;-66
2024/01/09 06:14:35;;;;;;;6.78;3.00;;;7.80;91.50;;;;;;5030043;28;20049;-65
2024/01/09 06:17:01;;;;;;;8.70;4.70;;;;;;;;;;5030242;28;20056;-66
2024/01/09 06:19:27;;;;;;;8.38;4.45;;;;;;;;;;5014082;28;20068;-66
2024/01/09 06:21:54;;;;;;;8.60;4.35;;;;;;;;;;5030444;28;20096;-67
2024/01/09 06:24:20;;;;;;;8.23;3.90;;;8.20;90.20;;;;;;5012047;28;20500;-67
2024/01/09 06:26:46;;;;;;;6.13;2.97;;;8.00;91.50;;;;;;5030265;28;20121;-66
2024/01/09 06:29:12;;;;;;;6.95;3.92;;;;;;;;;;5046825;28;20449;-66
2024/01/09 06:31:40;;;;;;;6.68;3.38;;;7.90;91.50;;;;;;5014162;28;20426;-66
2024/01/09 06:34:06;;;;;;;6.50;3.28;;;7.90;91.50;;;;;;5014508;28;20100;-66
2024/01/09 06:36:32;;;;;;;7.43;2.92;;;7.80;91.50;;;;;;5030196;28;20443;-66
2024/01/09 06:38:58;;;;;;;7.75;3.55;;;;;;;;;;5013726;28;20111;-66
2024/01/09 06:41:24;;;;;;;9.50;3.38;;;7.80;91.50;;;;;;5014217;28;20129;-66
2024/01/09 06:43:51;;;;;;;6.90;3.42;;;;;;;;;;5013056;28;20092;-67
2024/01/09 06:46:17;;;;;;;9.35;4.20;;;7.80;91.40;;;;;;5014884;28;20045;-66
2024/01/09 06:48:43;;;;;;;7.22;3.70;;;;;;;;;;5013548;28;20045;-66
2024/01/09 06:51:09;;;;;;;8.00;3.85;;;;;;;;;;5046217;28;20065;-65
2024/01/09 06:53:35;;;;;;;8.13;3.92;;;;;;;;;;5013352;28;20042;-66
2024/01/09 06:56:01;;;;;;;8.45;3.75;;;;;;;;;;5013449;28;20111;-67
2024/01/09 06:58:27;;;;;;;8.27;3.58;;;;;;;;;;4993651;28;20133;-66
2024/01/09 07:00:54;;;;;;;6.30;3.15;;;;;;;;;;5037675;28;20045;-66
2024/01/09 07:03:20;;;;;;;7.35;3.22;;;;;;;;;;5012972;28;20132;-65
2024/01/09 07:05:46;;;;;;;7.93;3.40;;;;;;;;;;5013704;28;20395;-65
2024/01/09 07:08:12;;;;;;;8.52;3.97;;;;;;;;;;5046168;28;20052;-66
2024/01/09 07:10:38;;;;;;;9.45;4.25;;;;;;;;;;5045393;28;20075;-66
2024/01/09 07:13:04;;;;;;;8.60;4.53;;;;;;;;;;5013858;28;20042;-65
2024/01/09 07:15:30;;;;;;;7.40;3.88;;;;;;;;;;5012788;28;20089;-66
2024/01/09 07:17:56;;;;;;;7.18;4.10;;;;;;;;;;5013046;28;20081;-67
2024/01/09 07:20:23;;;;;;;8.43;3.97;;;;;;;;;;5012655;28;20125;-66
2024/01/09 07:22:49;;;;;;;7.43;3.25;;;;;;;;;;5045997;28;20041;-66
2024/01/09 07:25:15;;;;;;;6.75;3.28;;;;;;;;;;5012054;28;20061;-67
2024/01/09 07:27:41;;;;;;;6.38;3.10;;;;;;;;;;5014080;28;20055;-66
2024/01/09 07:30:08;;;;;;;7.07;3.15;;;;;;;;;;5012314;28;20089;-67
2024/01/09 07:32:33;;;;;;;8.70;4.72;;;7.80;91.40;;;;;;5062279;28;20049;-66
2024/01/09 07:35:00;;;;;;;10.43;5.22;;;;;;;;;;5008068;28;20056;-66
2024/01/09 07:37:26;;;;;;;8.05;4.03;;;;;;;;;;5013576;28;20080;-66
2024/01/09 07:39:52;;;;;;;7.68;3.90;;;;;;;;;;5045607;28;20392;-66
2024/01/09 07:42:18;;;;;;;7.95;4.18;;;7.80;89.70;;;;;;5013127;28;20065;-67
2024/01/09 07:44:44;;;;;;;8.43;4.15;;;7.70;91.30;;;;;;5045207;28;20057;-66
2024/01/09 07:47:13;;;;;;;7.68;3.47;;;;;;;;;;5045350;28;20046;-66
2024/01/09 07:49:39;;;;;;;7.97;3.63;;;;;;;;;;5044591;28;20045;-65
2024/01/09 07:52:05;;;;;;;8.80;3.72;;;7.70;91.50;;;;;;5044526;28;20492;-66
2024/01/09 07:54:31;;;;;;;6.00;3.55;;;7.90;91.50;;;;;;5013274;28;20052;-65
2024/01/09 07:56:57;;;;;;;8.70;5.80;;;7.90;91.40;;;;;;5044510;28;20399;-65
2024/01/09 07:59:23;;;;;;;10.70;5.68;;;;;;;;;;5011720;28;20396;-65
2024/01/09 08:01:55;;;;;;;10.52;5.70;;;7.80;90.30;;;;;;5012876;28;20046;-66
2024/01/09 08:04:22;;;;;;;11.37;4.47;;;;;;;;;;5011631;28;20057;-65
2024/01/09 08:06:52;;;;;;;9.45;4.30;;;;;;;;;;5011943;28;20076;-66
2024/01/09 08:09:20;;;;;;;8.35;4.07;;;7.90;89.10;;;;;;5011624;28;20050;-65
2024/01/09 08:11:46;;;;;;;7.38;4.07;;;8.00;91.40;;;;;;5044327;28;20133;-66
2024/01/09 08:14:13;;;;;;;9.02;3.97;;;8.00;91.50;;;;;;5027483;28;20049;-64
2024/01/09 08:16:40;;;;;;;8.60;4.10;;;;;;;;;;4995766;28;20046;-65
2024/01/09 08:19:07;;;;;;;7.97;4.13;;;;;;;;;;5011939;28;20050;-65
2024/01/09 08:21:35;;;;;;;10.00;5.28;;;7.90;91.50;;;;;;5013003;28;20447;-65
2024/01/09 08:24:01;;;;;;;11.30;5.88;;;7.90;90.20;;;;;;5012387;28;20045;-65
2024/01/09 08:26:28;;;;;;;9.38;4.47;;;8.00;91.50;;;;;;5011591;28;20056;-65
2024/01/09 08:28:54;;;;;;;7.93;4.00;;;;;;;;;;5055432;28;20064;-66
2024/01/09 08:31:20;;;;;;;8.68;4.05;;;;;;;;;;5025843;28;20053;-65
2024/01/09 08:33:47;;;;;;;8.07;4.18;;;;;;;;;;5043529;28;20046;-66
2024/01/09 08:36:14;;;;;;;7.10;4.00;;;8.20;91.50;;;;;;5011522;28;20052;-65
2024/01/09 08:38:40;;;;;;;7.55;3.72;;;;;;;;;;5027839;28;20085;-65
2024/01/09 08:41:06;;;;;;;8.82;5.32;;;;;;;;;;5044274;28;20058;-65
2024/01/09 08:43:32;;;;;;;12.48;6.80;;;8.00;90.50;;;;;;5016661;28;20048;-65
2024/01/09 08:45:59;;;;;;;9.52;5.03;;;;;;;;;;5022807;28;20477;-65
2024/01/09 08:48:27;;;;;;;9.52;4.80;;;;;;;;;;5017246;28;20084;-66
2024/01/09 08:50:53;;;;;;;9.40;4.50;;;;;;;;;;5015090;28;20551;-65
2024/01/09 08:53:20;;;;;;;8.25;4.40;;;;;;;;;;5048598;28;20124;-66
2024/01/09 08:55:46;;;;;;;7.55;4.15;;;;;;;;;;5031705;28;20054;-66
2024/01/09 08:58:12;;;;;;;7.85;4.20;;;;;;;;;;5016932;28;20042;-66
2024/01/09 09:00:38;;;;;;;8.18;4.53;;;8.20;91.60;;;;;;5047601;28;20435;-66
2024/01/09 09:03:04;;;;;;;8.30;5.13;;;8.20;91.60;;;;;;5014785;28;20045;-66
2024/01/09 09:05:30;;;;;;;11.55;6.40;;;8.20;91.50;;;;;;5015471;28;20042;-65
2024/01/09 09:07:57;;;;;;;10.23;5.32;;;;;;;;;;5015202;28;20493;-65
2024/01/09 09:10:22;;;;;;;8.48;4.38;;;8.40;91.30;;;;;;5013685;28;20115;-65
2024/01/09 09:12:49;;;;;;;8.63;4.82;;;;;;;;;;5015446;28;20073;-65
2024/01/09 09:15:15;;;;;;;8.77;4.07;;;;;;;;;;5014966;28;20042;-65
2024/01/09 09:17:41;;;;;;;8.40;4.60;;;;;;;;;;5016439;28;20042;-66
2024/01/09 09:20:07;;;;;;;8.90;4.20;;;;;;;;;;5047809;28;20140;-66
2024/01/09 09:22:35;;;;;;;6.93;3.55;;;;;;;;;;5047843;28;20427;-66
2024/01/09 09:25:01;;;;;;;12.60;6.00;;;8.00;91.20;;;;;;5015953;28;20052;-65
2024/01/09 09:27:27;;;;;;;9.68;5.32;;;8.00;90.10;;;;;;5015089;28;20062;-66
2024/01/09 09:29:53;;;;;;;10.50;5.75;;;8.00;91.20;;;;;;5015880;28;20395;-66
2024/01/09 09:32:19;;;;;;;8.77;4.68;;;8.10;91.20;;;;;;5014075;28;20085;-66
2024/01/09 09:34:45;;;;;;;7.85;4.10;;;;;;;;;;5015179;28;20038;-66
2024/01/09 09:37:12;;;;;;;7.43;4.43;;;;;;;;;;5038583;28;20121;-66
2024/01/09 09:39:38;;;;;;;10.93;4.30;;;;;;;;;;5015079;28;20072;-67
2024/01/09 09:42:04;;;;;;;7.82;3.78;;;8.10;91.20;;;;;;5013622;28;20045;-67
2024/01/09 09:44:32;;;;;;;7.97;4.00;;;;;;;;;;5015046;28;20078;-66
2024/01/09 09:46:58;;;;;;;7.38;3.40;;;;;;;;;;4998053;28;20136;-66
2024/01/09 09:49:24;;;;;;;9.88;5.97;;;7.90;91.30;;;;;;5014168;28;20045;-66
2024/01/09 09:51:56;;;;;;;9.02;4.47;;;;;;;;;;5013668;28;20053;-66
2024/01/09 09:54:23;;;;;;;10.43;5.18;;;;;;;;;;5012795;28;20471;-67
2024/01/09 09:56:49;;;;;;;8.55;4.25;;;8.00;90.30;;;;;;5013328;28;20042;-65
2024/01/09 09:59:18;;;;;;;7.80;4.15;;;8.20;91.20;;;;;;4996641;28;20569;-65
2024/01/09 10:01:44;;;;;;;52.30;6.90;;;8.00;88.70;;;;;;5014750;28;20042;-66
2024/01/09 10:04:24;;;;;;;152.23;101.07;;;8.20;88.00;;;;;;5013374;28;21376;-64
2024/01/09 10:06:50;;;;;;;610.63;397.80;;;8.10;90.50;;;;;;5012827;28;20045;-65
2024/01/09 10:09:16;;;;;;;472.65;288.65;;;8.20;91.00;;;;;;5013587;28;20049;-64
2024/01/09 10:11:42;;;;;;;347.40;211.18;;;8.40;91.10;;;;;;5013930;28;20134;-66
2024/01/09 10:14:09;;;;;;;244.60;152.60;;;8.60;91.00;;;;;;5013545;28;20050;-66
2024/01/09 10:16:54;;;;;;;216.45;129.02;;;;;;;;;;5013440;28;20050;-67
2024/01/09 10:19:24;;;;;;;220.73;140.68;;;;;;;;;;5013796;28;20215;-65
2024/01/09 10:21:50;;;;;;;251.07;166.75;;;;;;;;;;5013441;28;20050;-67
2024/01/09 10:24:16;;;;;;;199.05;131.20;;;;;;;;;;5029104;28;20041;-66
2024/01/09 10:26:43;;;;;;;176.05;120.72;;;;;;;;;;5012901;28;20136;-65
2024/01/09 10:29:09;;;;;;;169.30;110.78;;;;;;;;;;5002775;28;20042;-70
2024/01/09 10:31:35;;;;;;;170.77;118.18;;;;;;;;;;4995913;28;20123;-67
2024/01/09 10:34:02;;;;;;;170.90;125.55;;;;;;;;;;4994006;28;20082;-62
2024/01/09 10:36:27;;;;;;;157.98;115.50;;;10.90;88.60;;;;;;5000761;28;20038;-68
2024/01/09 10:39:06;;;;;;;144.63;103.47;;;10.80;84.10;;;;;;5030077;28;20050;-69
2024/01/09 10:41:32;;;;;;;140.93;102.78;;;;;;;;;;5029777;28;20069;-66
2024/01/09 10:44:01;;;;;;;123.80;88.63;;;11.20;83.40;;;;;;5014056;28;20062;-66
2024/01/09 10:46:29;;;;;;;112.82;82.80;;;;;;;;;;5043001;28;20157;-67
2024/01/09 10:48:55;;;;;;;106.75;78.30;;;;;;;;;;5027217;28;20499;-65
2024/01/09 10:51:22;;;;;;;690.90;144.45;;;11.90;85.20;;;;;;4996575;28;20057;-66
2024/01/09 10:53:49;;;;;;;415.63;99.15;;;;;;;;;;5046076;28;20061;-66
2024/01/09 10:56:18;;;;;;;959.45;201.85;;;;;;;;;;5046198;28;20046;-66
2024/01/09 10:58:48;;;;;;;647.47;121.78;;;;;;;;;;5046170;28;20042;-68
2024/01/09 11:01:14;;;;;;;509.88;98.72;;;;;;;;;;5029712;28;20145;-67
2024/01/09 11:03:44;;;;;;;436.85;88.28;;;;;;;;;;5046205;28;20462;-66
2024/01/09 11:06:10;;;;;;;426.30;87.68;;;;;;;;;;5012765;28;20038;-68
2024/01/09 11:08:36;;;;;;;451.27;96.32;;;;;;;;;;5012267;28;20041;-67
2024/01/09 11:11:04;;;;;;;417.98;86.45;;;12.70;82.80;;;;;;4993769;28;20038;-66
2024/01/09 11:13:31;;;;;;;322.05;85.53;;;12.70;79.30;;;;;;5011646;28;20053;-68
2024/01/09 11:15:57;;;;;;;301.80;81.18;;;;;;;;;;4979501;28;20049;-68
2024/01/09 11:18:23;;;;;;;291.67;71.55;;;12.70;82.30;;;;;;4980666;28;20447;-68
2024/01/09 11:21:02;;;;;;;257.63;68.10;;;;;;;;;;4996106;28;20037;-68
2024/01/09 11:23:43;;;;;;;245.63;62.28;;;12.70;78.20;;;;;;5028748;28;20042;-69
2024/01/09 11:26:12;;;;;;;220.10;59.00;;;12.70;81.80;;;;;;4993306;28;20046;-68
2024/01/09 11:28:39;;;;;;;206.52;52.30;;;;;;;;;;5002277;28;20400;-66
2024/01/09 11:31:08;;;;;;;194.70;52.45;;;;;;;;;;5021330;28;20072;-70
2024/01/09 11:33:36;;;;;;;166.93;48.53;;;;;;;;;;4994210;28;20125;-69
2024/01/09 11:36:05;;;;;;;152.73;45.60;;;12.60;78.00;;;;;;5044596;28;20038;-68
2024/01/09 11:38:31;;;;;;;156.55;46.33;;;12.60;81.60;;;;;;5000933;28;20082;-67
2024/01/09 11:41:02;;;;;;;176.38;67.43;;;;;;;;;;5011829;28;20061;-66
2024/01/09 11:43:28;;;;;;;139.63;51.13;;;12.60;81.70;;;;;;5034238;28;20460;-67
2024/01/09 11:45:54;;;;;;;146.50;47.20;;;12.60;81.70;;;;;;5017232;28;20049;-66
2024/01/09 11:48:20;;;;;;;122.60;44.17;;;;;;;;;;5011577;28;20046;-67
2024/01/09 11:50:46;;;;;;;101.75;43.53;;;12.70;81.60;;;;;;4995809;28;20050;-66
2024/01/09 11:53:12;;;;;;;105.53;38.25;;;;;;;;;;5011768;28;20455;-66
2024/01/09 11:55:38;;;;;;;91.35;36.38;;;;;;;;;;5012125;28;20581;-65
2024/01/09 11:58:04;;;;;;;83.50;34.45;;;12.60;81.30;;;;;;5013053;28;20076;-66
2024/01/09 12:00:30;;;;;;;79.22;32.80;;;12.40;81.20;;;;;;5013210;28;20088;-66
2024/01/09 12:02:56;;;;;;;63.53;30.95;;;12.60;81.20;;;;;;5028629;28;20053;-66
2024/01/09 12:05:22;;;;;;;76.00;35.30;;;;;;;;;;5011636;28;20085;-66
2024/01/09 12:07:48;;;;;;;86.30;44.58;;;;;;;;;;5011534;28;20095;-67
2024/01/09 12:10:15;;;;;;;507.50;326.80;;;12.30;80.10;;;;;;5011665;28;20041;-66
2024/01/09 12:12:41;;;;;;;239.07;138.60;;;;;;;;;;4995726;28;20188;-67
2024/01/09 12:15:07;;;;;;;271.25;162.73;;;12.20;81.00;;;;;;5044755;28;20060;-67
2024/01/09 12:17:33;;;;;;;502.65;332.00;;;;;;;;;;5012993;28;20054;-67
2024/01/09 12:20:00;;;;;;;288.50;183.05;;;;;;;;;;4995376;28;20136;-66
2024/01/09 12:22:26;;;;;;;258.52;165.82;;;;;;;;;;5012609;28;20046;-66
2024/01/09 12:24:52;;;;;;;229.07;146.50;;;12.20;81.20;;;;;;5044007;28;20492;-66
2024/01/09 12:27:19;;;;;;;213.45;135.85;;;;;;;;;;5012741;28;20057;-67
2024/01/09 12:29:45;;;;;;;202.25;125.57;;;;;;;;;;5044467;28;20125;-67
2024/01/09 12:32:11;;;;;;;170.98;110.38;;;;;;;;;;5011464;28;20054;-67
2024/01/09 12:34:39;;;;;;;161.73;106.40;;;12.20;78.80;;;;;;5040834;28;20471;-70
2024/01/09 12:37:05;;;;;;;153.82;98.60;;;;;;;;;;4994044;28;20082;-65
2024/01/09 12:39:33;;;;;;;189.63;132.43;;;12.30;77.90;;;;;;5011200;28;20037;-70
2024/01/09 12:42:18;;;;;;;361.40;286.35;;;;;;;;;;5010812;28;20095;-70
2024/01/09 12:44:44;;;;;;;273.85;185.73;;;;;;;;;;5010345;28;20369;-67
2024/01/09 12:47:16;;;;;;;257.27;154.90;;;12.60;78.70;;;;;;5011386;28;20050;-68
2024/01/09 12:49:46;;;;;;;215.07;112.90;;;;;;;;;;5011401;28;20053;-67
2024/01/09 12:52:12;;;;;;;200.35;122.68;;;12.60;80.80;;;;;;5000280;28;20074;-67
2024/01/09 12:54:40;;;;;;;173.73;105.85;;;12.60;78.30;;;;;;5008489;28;20054;-67
2024/01/09 12:57:06;;;;;;;157.85;102.40;;;;;;;;;;5028263;28;20053;-71
2024/01/09 12:59:32;;;;;;;276.75;191.40;;;12.80;80.80;;;;;;5044228;28;20492;-69
2024/01/09 13:01:59;;;;;;;156.15;104.18;;;;;;;;;;5044654;28;20077;-71
2024/01/09 13:04:25;;;;;;;131.80;90.97;;;12.50;80.80;;;;;;5044464;28;20057;-71
2024/01/09 13:06:51;;;;;;;120.72;86.28;;;;;;;;;;4995040;28;20389;-71
2024/01/09 13:09:17;;;;;;;111.78;74.72;;;;;;;;;;5012332;28;20046;-72
2024/01/09 13:11:44;;;;;;;81.30;61.70;;;13.20;80.50;;;;;;4994983;28;20400;-67
2024/01/09 13:14:10;;;;;;;80.85;60.50;;;;;;;;;;5011481;28;20125;-67
2024/01/09 13:16:37;;;;;;;71.15;54.13;;;;;;;;;;5019257;28;20046;-66
2024/01/09 13:19:03;;;;;;;64.20;50.97;;;;;;;;;;5010487;28;20112;-68
2024/01/09 13:21:29;;;;;;;71.95;62.13;;;13.50;79.80;;;;;;5037942;28;20042;-68
2024/01/09 13:23:56;;;;;;;119.63;59.95;;;13.50;79.80;;;;;;5011161;28;20420;-69
2024/01/09 13:26:22;;;;;;;112.75;46.95;;;;;;;;;;4978405;28;20057;-70
2024/01/09 13:28:48;;;;;;;104.35;46.85;;;13.40;79.60;;;;;;5012082;28;20132;-75
2024/01/09 13:31:15;;;;;;;89.40;38.55;;;;;;;;;;5010420;28;20058;-75
2024/01/09 13:33:40;;;;;;;74.18;32.65;;;13.40;79.90;;;;;;5028792;28;20045;-81
2024/01/09 13:36:07;;;;;;;71.93;32.83;;;13.40;79.90;;;;;;5014229;28;20052;-81
2024/01/09 13:38:36;;;;;;;81.68;32.47;;;13.30;79.90;;;;;;5014955;28;20057;-68
2024/01/09 13:41:04;;;;;;;72.20;30.75;;;13.30;77.50;;;;;;5013810;28;20563;-69
2024/01/09 13:43:31;;;;;;;60.60;26.27;;;13.40;77.30;;;;;;4997122;28;20046;-69
2024/01/09 13:46:02;;;;;;;104.00;52.40;;;13.40;79.70;;;;;;5015313;28;20440;-69
2024/01/09 13:48:28;;;;;;;90.25;47.47;;;13.40;79.40;;;;;;5015873;28;20050;-67